sensor_id;sensor_type;location;lat;lon;timestamp;P1;durP1;ratioP1;P2;durP2;ratioP2
4696;SDS011;2362;50.780;0.292;2023-04-03T00:00:28;18.38;;;2.88;;
4696;SDS011;2362;50.780;0.292;2023-04-03T00:02:54;22.75;;;2.63;;
4696;SDS011;2362;50.780;0.292;2023-04-03T00:05:20;26.08;;;2.65;;
4696;SDS011;2362;50.780;0.292;2023-04-03T00:07:45;27.17;;;3.47;;
4696;SDS011;2362;50.780;0.292;2023-04-03T00:10:11;37.67;;;3.35;;
4696;SDS011;2362;50.780;0.292;2023-04-03T00:12:37;17.95;;;2.47;;
4696;SDS011;2362;50.780;0.292;2023-04-03T00:15:03;18.95;;;2.22;;
4696;SDS011;2362;50.780;0.292;2023-04-03T00:17:29;21.50;;;3.30;;
4696;SDS011;2362;50.780;0.292;2023-04-03T00:19:54;19.42;;;2.53;;
4696;SDS011;2362;50.780;0.292;2023-04-03T00:22:23;14.35;;;1.92;;
4696;SDS011;2362;50.780;0.292;2023-04-03T00:24:49;12.07;;;2.28;;
4696;SDS011;2362;50.780;0.292;2023-04-03T00:27:14;21.63;;;3.15;;
4696;SDS011;2362;50.780;0.292;2023-04-03T00:29:40;20.15;;;2.15;;
4696;SDS011;2362;50.780;0.292;2023-04-03T00:32:06;16.50;;;1.70;;
4696;SDS011;2362;50.780;0.292;2023-04-03T00:34:32;22.52;;;3.40;;
4696;SDS011;2362;50.780;0.292;2023-04-03T00:36:57;15.35;;;2.63;;
4696;SDS011;2362;50.780;0.292;2023-04-03T00:39:23;13.32;;;2.58;;
4696;SDS011;2362;50.780;0.292;2023-04-03T00:41:49;31.73;;;5.00;;
4696;SDS011;2362;50.780;0.292;2023-04-03T00:46:59;20.73;;;2.00;;
4696;SDS011;2362;50.780;0.292;2023-04-03T00:49:26;29.58;;;2.75;;
4696;SDS011;2362;50.780;0.292;2023-04-03T00:51:53;23.50;;;2.22;;
4696;SDS011;2362;50.780;0.292;2023-04-03T00:54:20;19.65;;;2.20;;
4696;SDS011;2362;50.780;0.292;2023-04-03T00:56:46;24.85;;;3.00;;
4696;SDS011;2362;50.780;0.292;2023-04-03T00:59:14;24.88;;;2.30;;
4696;SDS011;2362;50.780;0.292;2023-04-03T01:01:52;23.25;;;2.15;;
4696;SDS011;2362;50.780;0.292;2023-04-03T01:04:29;30.60;;;3.10;;
4696;SDS011;2362;50.780;0.292;2023-04-03T01:06:56;18.55;;;2.92;;
4696;SDS011;2362;50.780;0.292;2023-04-03T01:09:29;29.67;;;2.95;;
4696;SDS011;2362;50.780;0.292;2023-04-03T01:14:46;25.40;;;2.72;;
4696;SDS011;2362;50.780;0.292;2023-04-03T01:17:31;16.60;;;2.05;;
4696;SDS011;2362;50.780;0.292;2023-04-03T01:25:12;24.33;;;2.67;;
4696;SDS011;2362;50.780;0.292;2023-04-03T01:27:38;16.15;;;1.92;;
4696;SDS011;2362;50.780;0.292;2023-04-03T01:30:04;26.98;;;2.08;;
4696;SDS011;2362;50.780;0.292;2023-04-03T01:32:30;18.70;;;3.35;;
4696;SDS011;2362;50.780;0.292;2023-04-03T01:34:56;9.90;;;2.30;;
4696;SDS011;2362;50.780;0.292;2023-04-03T01:37:21;28.50;;;3.03;;
4696;SDS011;2362;50.780;0.292;2023-04-03T01:39:47;23.70;;;4.40;;
4696;SDS011;2362;50.780;0.292;2023-04-03T01:42:13;24.33;;;2.42;;
4696;SDS011;2362;50.780;0.292;2023-04-03T01:44:38;15.57;;;2.03;;
4696;SDS011;2362;50.780;0.292;2023-04-03T01:47:07;24.20;;;2.88;;
4696;SDS011;2362;50.780;0.292;2023-04-03T01:49:33;28.05;;;2.58;;
4696;SDS011;2362;50.780;0.292;2023-04-03T01:51:58;18.08;;;2.45;;
4696;SDS011;2362;50.780;0.292;2023-04-03T01:54:24;17.15;;;2.22;;
4696;SDS011;2362;50.780;0.292;2023-04-03T01:56:50;23.02;;;3.15;;
4696;SDS011;2362;50.780;0.292;2023-04-03T01:59:16;16.52;;;2.28;;
4696;SDS011;2362;50.780;0.292;2023-04-03T02:01:43;16.33;;;2.25;;
4696;SDS011;2362;50.780;0.292;2023-04-03T02:04:10;21.35;;;2.08;;
4696;SDS011;2362;50.780;0.292;2023-04-03T02:06:37;25.38;;;2.50;;
4696;SDS011;2362;50.780;0.292;2023-04-03T02:09:02;16.15;;;1.70;;
4696;SDS011;2362;50.780;0.292;2023-04-03T02:11:29;12.27;;;1.80;;
4696;SDS011;2362;50.780;0.292;2023-04-03T02:13:55;20.48;;;2.25;;
4696;SDS011;2362;50.780;0.292;2023-04-03T02:16:21;23.23;;;2.88;;
4696;SDS011;2362;50.780;0.292;2023-04-03T02:18:46;11.55;;;1.92;;
4696;SDS011;2362;50.780;0.292;2023-04-03T02:21:12;23.35;;;2.30;;
4696;SDS011;2362;50.780;0.292;2023-04-03T02:23:37;24.58;;;2.42;;
4696;SDS011;2362;50.780;0.292;2023-04-03T02:26:07;19.55;;;2.58;;
4696;SDS011;2362;50.780;0.292;2023-04-03T02:28:36;22.20;;;2.35;;
4696;SDS011;2362;50.780;0.292;2023-04-03T02:31:03;15.18;;;2.10;;
4696;SDS011;2362;50.780;0.292;2023-04-03T02:33:30;32.35;;;3.80;;
4696;SDS011;2362;50.780;0.292;2023-04-03T02:35:56;16.05;;;2.63;;
4696;SDS011;2362;50.780;0.292;2023-04-03T02:38:22;22.55;;;3.05;;
4696;SDS011;2362;50.780;0.292;2023-04-03T02:40:48;11.02;;;3.13;;
4696;SDS011;2362;50.780;0.292;2023-04-03T02:43:14;19.23;;;3.15;;
4696;SDS011;2362;50.780;0.292;2023-04-03T02:45:40;12.32;;;1.85;;
4696;SDS011;2362;50.780;0.292;2023-04-03T02:48:06;18.45;;;2.63;;
4696;SDS011;2362;50.780;0.292;2023-04-03T02:50:31;19.65;;;1.90;;
4696;SDS011;2362;50.780;0.292;2023-04-03T02:52:57;7.93;;;2.08;;
4696;SDS011;2362;50.780;0.292;2023-04-03T02:55:23;16.23;;;2.90;;
4696;SDS011;2362;50.780;0.292;2023-04-03T02:57:48;17.58;;;3.75;;
4696;SDS011;2362;50.780;0.292;2023-04-03T03:00:16;25.00;;;3.08;;
4696;SDS011;2362;50.780;0.292;2023-04-03T03:02:42;19.00;;;2.13;;
4696;SDS011;2362;50.780;0.292;2023-04-03T03:05:08;17.13;;;2.75;;
4696;SDS011;2362;50.780;0.292;2023-04-03T03:07:34;19.85;;;2.95;;
4696;SDS011;2362;50.780;0.292;2023-04-03T03:09:59;34.45;;;2.40;;
4696;SDS011;2362;50.780;0.292;2023-04-03T03:12:25;23.83;;;2.30;;
4696;SDS011;2362;50.780;0.292;2023-04-03T03:14:51;13.43;;;1.95;;
4696;SDS011;2362;50.780;0.292;2023-04-03T03:17:16;27.60;;;2.63;;
4696;SDS011;2362;50.780;0.292;2023-04-03T03:19:42;14.85;;;2.55;;
4696;SDS011;2362;50.780;0.292;2023-04-03T03:22:08;21.98;;;3.13;;
4696;SDS011;2362;50.780;0.292;2023-04-03T03:24:34;24.10;;;2.42;;
4696;SDS011;2362;50.780;0.292;2023-04-03T03:26:59;22.20;;;2.20;;
4696;SDS011;2362;50.780;0.292;2023-04-03T03:29:25;13.68;;;2.10;;
4696;SDS011;2362;50.780;0.292;2023-04-03T03:32:16;18.90;;;2.60;;
4696;SDS011;2362;50.780;0.292;2023-04-03T03:34:42;27.65;;;3.03;;
4696;SDS011;2362;50.780;0.292;2023-04-03T03:37:08;21.20;;;2.88;;
4696;SDS011;2362;50.780;0.292;2023-04-03T03:39:33;14.10;;;2.42;;
4696;SDS011;2362;50.780;0.292;2023-04-03T03:41:59;15.07;;;2.03;;
4696;SDS011;2362;50.780;0.292;2023-04-03T03:44:25;17.02;;;2.55;;
4696;SDS011;2362;50.780;0.292;2023-04-03T03:46:50;19.65;;;2.92;;
4696;SDS011;2362;50.780;0.292;2023-04-03T03:49:16;22.65;;;3.28;;
4696;SDS011;2362;50.780;0.292;2023-04-03T03:51:41;18.92;;;2.38;;
4696;SDS011;2362;50.780;0.292;2023-04-03T03:54:07;24.88;;;3.03;;
4696;SDS011;2362;50.780;0.292;2023-04-03T03:56:33;23.30;;;3.00;;
4696;SDS011;2362;50.780;0.292;2023-04-03T03:58:59;23.30;;;2.75;;
4696;SDS011;2362;50.780;0.292;2023-04-03T04:01:25;18.73;;;3.28;;
4696;SDS011;2362;50.780;0.292;2023-04-03T04:03:51;15.38;;;3.22;;
4696;SDS011;2362;50.780;0.292;2023-04-03T04:06:19;21.40;;;2.88;;
4696;SDS011;2362;50.780;0.292;2023-04-03T04:08:44;16.02;;;2.85;;
4696;SDS011;2362;50.780;0.292;2023-04-03T04:11:10;19.52;;;2.75;;
4696;SDS011;2362;50.780;0.292;2023-04-03T04:13:36;23.73;;;3.92;;
4696;SDS011;2362;50.780;0.292;2023-04-03T04:16:02;32.95;;;3.83;;
4696;SDS011;2362;50.780;0.292;2023-04-03T04:18:28;27.27;;;3.28;;
4696;SDS011;2362;50.780;0.292;2023-04-03T04:20:53;30.52;;;2.90;;
4696;SDS011;2362;50.780;0.292;2023-04-03T04:23:19;16.45;;;3.00;;
4696;SDS011;2362;50.780;0.292;2023-04-03T04:25:45;16.25;;;3.42;;
4696;SDS011;2362;50.780;0.292;2023-04-03T04:28:11;21.50;;;2.72;;
4696;SDS011;2362;50.780;0.292;2023-04-03T04:30:37;23.85;;;3.25;;
4696;SDS011;2362;50.780;0.292;2023-04-03T04:33:03;29.05;;;3.22;;
4696;SDS011;2362;50.780;0.292;2023-04-03T04:35:29;33.53;;;4.15;;
4696;SDS011;2362;50.780;0.292;2023-04-03T04:37:55;25.77;;;3.47;;
4696;SDS011;2362;50.780;0.292;2023-04-03T04:40:21;23.23;;;3.80;;
4696;SDS011;2362;50.780;0.292;2023-04-03T04:42:46;31.45;;;4.05;;
4696;SDS011;2362;50.780;0.292;2023-04-03T04:45:12;24.63;;;4.32;;
4696;SDS011;2362;50.780;0.292;2023-04-03T04:47:38;23.35;;;2.95;;
4696;SDS011;2362;50.780;0.292;2023-04-03T04:50:03;30.85;;;3.90;;
4696;SDS011;2362;50.780;0.292;2023-04-03T04:52:29;27.67;;;4.38;;
4696;SDS011;2362;50.780;0.292;2023-04-03T04:54:55;24.25;;;4.18;;
4696;SDS011;2362;50.780;0.292;2023-04-03T04:57:21;21.67;;;4.53;;
4696;SDS011;2362;50.780;0.292;2023-04-03T04:59:46;28.70;;;4.05;;
4696;SDS011;2362;50.780;0.292;2023-04-03T05:02:12;32.15;;;3.72;;
4696;SDS011;2362;50.780;0.292;2023-04-03T05:04:37;27.00;;;4.05;;
4696;SDS011;2362;50.780;0.292;2023-04-03T05:07:03;17.48;;;3.00;;
4696;SDS011;2362;50.780;0.292;2023-04-03T05:09:31;21.58;;;4.53;;
4696;SDS011;2362;50.780;0.292;2023-04-03T05:11:57;20.65;;;3.72;;
4696;SDS011;2362;50.780;0.292;2023-04-03T05:14:22;28.67;;;5.38;;
4696;SDS011;2362;50.780;0.292;2023-04-03T05:16:48;22.60;;;3.83;;
4696;SDS011;2362;50.780;0.292;2023-04-03T05:19:17;25.45;;;3.70;;
4696;SDS011;2362;50.780;0.292;2023-04-03T05:21:43;24.83;;;3.97;;
4696;SDS011;2362;50.780;0.292;2023-04-03T05:24:09;20.45;;;3.60;;
4696;SDS011;2362;50.780;0.292;2023-04-03T05:26:34;30.80;;;4.72;;
4696;SDS011;2362;50.780;0.292;2023-04-03T05:29:00;14.43;;;4.63;;
4696;SDS011;2362;50.780;0.292;2023-04-03T05:31:26;20.92;;;3.35;;
4696;SDS011;2362;50.780;0.292;2023-04-03T05:33:54;27.08;;;3.92;;
4696;SDS011;2362;50.780;0.292;2023-04-03T05:36:20;24.85;;;4.15;;
4696;SDS011;2362;50.780;0.292;2023-04-03T05:38:45;17.45;;;3.58;;
4696;SDS011;2362;50.780;0.292;2023-04-03T05:41:13;28.55;;;4.63;;
4696;SDS011;2362;50.780;0.292;2023-04-03T05:43:39;17.65;;;3.15;;
4696;SDS011;2362;50.780;0.292;2023-04-03T05:46:11;22.95;;;4.82;;
4696;SDS011;2362;50.780;0.292;2023-04-03T05:48:37;17.00;;;3.75;;
4696;SDS011;2362;50.780;0.292;2023-04-03T05:51:03;28.20;;;4.40;;
4696;SDS011;2362;50.780;0.292;2023-04-03T05:53:30;31.13;;;4.10;;
4696;SDS011;2362;50.780;0.292;2023-04-03T05:55:58;26.40;;;3.65;;
4696;SDS011;2362;50.780;0.292;2023-04-03T05:58:24;24.85;;;4.43;;
4696;SDS011;2362;50.780;0.292;2023-04-03T06:00:49;25.65;;;4.22;;
4696;SDS011;2362;50.780;0.292;2023-04-03T06:03:15;22.67;;;3.65;;
4696;SDS011;2362;50.780;0.292;2023-04-03T06:05:41;31.40;;;4.25;;
4696;SDS011;2362;50.780;0.292;2023-04-03T06:08:07;34.30;;;5.40;;
4696;SDS011;2362;50.780;0.292;2023-04-03T06:10:34;23.05;;;4.53;;
4696;SDS011;2362;50.780;0.292;2023-04-03T06:13:26;26.65;;;3.97;;
4696;SDS011;2362;50.780;0.292;2023-04-03T06:15:52;23.27;;;4.75;;
4696;SDS011;2362;50.780;0.292;2023-04-03T06:18:18;35.65;;;4.88;;
4696;SDS011;2362;50.780;0.292;2023-04-03T06:20:45;21.85;;;4.78;;
4696;SDS011;2362;50.780;0.292;2023-04-03T06:23:10;21.45;;;4.80;;
4696;SDS011;2362;50.780;0.292;2023-04-03T06:25:36;16.30;;;3.72;;
4696;SDS011;2362;50.780;0.292;2023-04-03T06:28:02;20.30;;;3.80;;
4696;SDS011;2362;50.780;0.292;2023-04-03T06:30:28;17.60;;;4.38;;
4696;SDS011;2362;50.780;0.292;2023-04-03T06:32:53;24.33;;;4.43;;
4696;SDS011;2362;50.780;0.292;2023-04-03T06:35:20;23.38;;;4.75;;
4696;SDS011;2362;50.780;0.292;2023-04-03T06:37:48;15.93;;;4.85;;
4696;SDS011;2362;50.780;0.292;2023-04-03T06:40:21;26.40;;;4.88;;
4696;SDS011;2362;50.780;0.292;2023-04-03T06:43:14;17.45;;;3.47;;
4696;SDS011;2362;50.780;0.292;2023-04-03T06:45:40;13.88;;;4.38;;
4696;SDS011;2362;50.780;0.292;2023-04-03T06:48:06;21.77;;;4.80;;
4696;SDS011;2362;50.780;0.292;2023-04-03T06:50:31;20.58;;;3.70;;
4696;SDS011;2362;50.780;0.292;2023-04-03T06:52:57;28.50;;;4.35;;
4696;SDS011;2362;50.780;0.292;2023-04-03T06:55:22;22.60;;;3.47;;
4696;SDS011;2362;50.780;0.292;2023-04-03T06:57:48;19.60;;;3.53;;
4696;SDS011;2362;50.780;0.292;2023-04-03T07:00:14;15.40;;;4.22;;
4696;SDS011;2362;50.780;0.292;2023-04-03T07:02:41;33.55;;;5.40;;
4696;SDS011;2362;50.780;0.292;2023-04-03T07:05:07;19.65;;;4.22;;
4696;SDS011;2362;50.780;0.292;2023-04-03T07:07:34;21.90;;;4.45;;
4696;SDS011;2362;50.780;0.292;2023-04-03T07:10:00;22.00;;;4.22;;
4696;SDS011;2362;50.780;0.292;2023-04-03T07:12:25;25.85;;;4.03;;
4696;SDS011;2362;50.780;0.292;2023-04-03T07:14:51;14.77;;;3.35;;
4696;SDS011;2362;50.780;0.292;2023-04-03T07:17:42;28.63;;;5.43;;
4696;SDS011;2362;50.780;0.292;2023-04-03T07:20:33;24.83;;;4.28;;
4696;SDS011;2362;50.780;0.292;2023-04-03T07:22:59;18.95;;;3.35;;
4696;SDS011;2362;50.780;0.292;2023-04-03T07:25:27;25.20;;;4.18;;
4696;SDS011;2362;50.780;0.292;2023-04-03T07:27:53;14.65;;;3.72;;
4696;SDS011;2362;50.780;0.292;2023-04-03T07:30:19;25.30;;;5.53;;
4696;SDS011;2362;50.780;0.292;2023-04-03T07:32:45;19.90;;;4.78;;
4696;SDS011;2362;50.780;0.292;2023-04-03T07:35:11;25.50;;;4.03;;
4696;SDS011;2362;50.780;0.292;2023-04-03T07:37:37;21.15;;;4.40;;
4696;SDS011;2362;50.780;0.292;2023-04-03T07:40:03;16.23;;;4.10;;
4696;SDS011;2362;50.780;0.292;2023-04-03T07:42:30;24.42;;;4.40;;
4696;SDS011;2362;50.780;0.292;2023-04-03T07:44:56;21.35;;;4.30;;
4696;SDS011;2362;50.780;0.292;2023-04-03T07:47:22;15.75;;;3.80;;
4696;SDS011;2362;50.780;0.292;2023-04-03T07:49:48;14.32;;;4.13;;
4696;SDS011;2362;50.780;0.292;2023-04-03T07:52:13;20.30;;;5.22;;
4696;SDS011;2362;50.780;0.292;2023-04-03T07:54:40;9.05;;;3.00;;
4696;SDS011;2362;50.780;0.292;2023-04-03T07:57:07;23.67;;;4.32;;
4696;SDS011;2362;50.780;0.292;2023-04-03T07:59:32;8.63;;;3.05;;
4696;SDS011;2362;50.780;0.292;2023-04-03T08:01:59;26.92;;;3.95;;
4696;SDS011;2362;50.780;0.292;2023-04-03T08:04:24;14.00;;;3.72;;
4696;SDS011;2362;50.780;0.292;2023-04-03T08:06:51;21.10;;;4.20;;
4696;SDS011;2362;50.780;0.292;2023-04-03T08:09:17;23.80;;;3.08;;
4696;SDS011;2362;50.780;0.292;2023-04-03T08:11:43;15.85;;;3.38;;
4696;SDS011;2362;50.780;0.292;2023-04-03T08:14:10;21.83;;;3.10;;
4696;SDS011;2362;50.780;0.292;2023-04-03T08:16:41;18.40;;;3.78;;
4696;SDS011;2362;50.780;0.292;2023-04-03T08:19:07;13.95;;;4.15;;
4696;SDS011;2362;50.780;0.292;2023-04-03T08:21:33;14.30;;;5.28;;
4696;SDS011;2362;50.780;0.292;2023-04-03T08:23:59;13.13;;;4.43;;
4696;SDS011;2362;50.780;0.292;2023-04-03T08:26:25;13.98;;;4.68;;
4696;SDS011;2362;50.780;0.292;2023-04-03T08:28:51;12.32;;;5.38;;
4696;SDS011;2362;50.780;0.292;2023-04-03T08:31:18;16.27;;;5.82;;
4696;SDS011;2362;50.780;0.292;2023-04-03T08:33:46;17.85;;;5.72;;
4696;SDS011;2362;50.780;0.292;2023-04-03T08:36:22;20.63;;;6.82;;
4696;SDS011;2362;50.780;0.292;2023-04-03T08:38:50;17.17;;;6.50;;
4696;SDS011;2362;50.780;0.292;2023-04-03T08:46:22;22.35;;;7.50;;
4696;SDS011;2362;50.780;0.292;2023-04-03T08:49:23;22.20;;;8.27;;
4696;SDS011;2362;50.780;0.292;2023-04-03T08:51:57;19.55;;;6.75;;
4696;SDS011;2362;50.780;0.292;2023-04-03T08:54:34;20.85;;;7.75;;
4696;SDS011;2362;50.780;0.292;2023-04-03T08:57:06;17.45;;;7.15;;
4696;SDS011;2362;50.780;0.292;2023-04-03T08:59:35;24.55;;;7.82;;
4696;SDS011;2362;50.780;0.292;2023-04-03T09:02:04;39.65;;;9.45;;
4696;SDS011;2362;50.780;0.292;2023-04-03T09:05:05;33.65;;;8.63;;
4696;SDS011;2362;50.780;0.292;2023-04-03T09:07:45;18.27;;;8.63;;
4696;SDS011;2362;50.780;0.292;2023-04-03T09:10:24;18.33;;;8.15;;
4696;SDS011;2362;50.780;0.292;2023-04-03T09:13:08;18.98;;;7.75;;
4696;SDS011;2362;50.780;0.292;2023-04-03T09:15:58;19.20;;;7.18;;
4696;SDS011;2362;50.780;0.292;2023-04-03T09:18:28;24.65;;;6.68;;
4696;SDS011;2362;50.780;0.292;2023-04-03T09:23:50;21.08;;;6.43;;
4696;SDS011;2362;50.780;0.292;2023-04-03T09:26:29;16.90;;;5.70;;
4696;SDS011;2362;50.780;0.292;2023-04-03T09:29:01;28.58;;;7.85;;
4696;SDS011;2362;50.780;0.292;2023-04-03T09:31:36;16.02;;;5.63;;
4696;SDS011;2362;50.780;0.292;2023-04-03T09:34:30;15.75;;;4.15;;
4696;SDS011;2362;50.780;0.292;2023-04-03T09:36:58;14.45;;;4.32;;
4696;SDS011;2362;50.780;0.292;2023-04-03T09:39:31;14.38;;;4.03;;
4696;SDS011;2362;50.780;0.292;2023-04-03T09:42:18;17.05;;;4.32;;
4696;SDS011;2362;50.780;0.292;2023-04-03T09:44:56;18.90;;;3.30;;
4696;SDS011;2362;50.780;0.292;2023-04-03T09:47:27;7.53;;;2.83;;
4696;SDS011;2362;50.780;0.292;2023-04-03T09:52:43;19.35;;;4.20;;
4696;SDS011;2362;50.780;0.292;2023-04-03T09:55:15;12.57;;;3.28;;
4696;SDS011;2362;50.780;0.292;2023-04-03T09:57:43;11.38;;;3.28;;
4696;SDS011;2362;50.780;0.292;2023-04-03T10:00:23;12.00;;;2.40;;
4696;SDS011;2362;50.780;0.292;2023-04-03T10:02:53;8.40;;;2.45;;
4696;SDS011;2362;50.780;0.292;2023-04-03T10:05:33;11.88;;;3.08;;
4696;SDS011;2362;50.780;0.292;2023-04-03T10:10:45;13.32;;;2.25;;
4696;SDS011;2362;50.780;0.292;2023-04-03T10:13:20;9.85;;;2.35;;
4696;SDS011;2362;50.780;0.292;2023-04-03T10:21:44;8.52;;;2.20;;
4696;SDS011;2362;50.780;0.292;2023-04-03T10:27:31;11.85;;;2.70;;
4696;SDS011;2362;50.780;0.292;2023-04-03T10:32:46;8.35;;;2.30;;
4696;SDS011;2362;50.780;0.292;2023-04-03T10:44:28;12.38;;;2.70;;
4696;SDS011;2362;50.780;0.292;2023-04-03T10:46:45;16.25;;;4.53;;
4696;SDS011;2362;50.780;0.292;2023-04-03T10:52:43;10.38;;;2.42;;
4696;SDS011;2362;50.780;0.292;2023-04-03T10:57:54;13.43;;;1.90;;
4696;SDS011;2362;50.780;0.292;2023-04-03T11:00:34;10.48;;;2.58;;
4696;SDS011;2362;50.780;0.292;2023-04-03T11:03:21;7.82;;;1.58;;
4696;SDS011;2362;50.780;0.292;2023-04-03T11:05:51;10.15;;;1.92;;
4696;SDS011;2362;50.780;0.292;2023-04-03T11:08:55;11.82;;;1.77;;
4696;SDS011;2362;50.780;0.292;2023-04-03T11:11:20;16.92;;;2.50;;
4696;SDS011;2362;50.780;0.292;2023-04-03T11:14:04;13.55;;;2.40;;
4696;SDS011;2362;50.780;0.292;2023-04-03T11:16:48;9.57;;;1.92;;
4696;SDS011;2362;50.780;0.292;2023-04-03T11:19:34;5.88;;;2.42;;
4696;SDS011;2362;50.780;0.292;2023-04-03T11:22:23;15.40;;;2.80;;
4696;SDS011;2362;50.780;0.292;2023-04-03T11:24:59;7.55;;;1.95;;
4696;SDS011;2362;50.780;0.292;2023-04-03T11:27:32;8.10;;;2.17;;
4696;SDS011;2362;50.780;0.292;2023-04-03T11:35:37;13.43;;;1.95;;
4696;SDS011;2362;50.780;0.292;2023-04-03T11:38:10;12.60;;;2.70;;
4696;SDS011;2362;50.780;0.292;2023-04-03T11:40:43;9.57;;;2.05;;
4696;SDS011;2362;50.780;0.292;2023-04-03T11:50:57;12.00;;;2.75;;
4696;SDS011;2362;50.780;0.292;2023-04-03T11:55:59;15.35;;;2.42;;
4696;SDS011;2362;50.780;0.292;2023-04-03T11:58:30;8.88;;;2.17;;
4696;SDS011;2362;50.780;0.292;2023-04-03T12:01:01;8.32;;;2.22;;
4696;SDS011;2362;50.780;0.292;2023-04-03T12:13:39;7.53;;;2.08;;
4696;SDS011;2362;50.780;0.292;2023-04-03T12:16:28;6.30;;;1.65;;
4696;SDS011;2362;50.780;0.292;2023-04-03T12:37:37;11.18;;;1.80;;
4696;SDS011;2362;50.780;0.292;2023-04-03T12:43:02;13.55;;;2.00;;
4696;SDS011;2362;50.780;0.292;2023-04-03T12:45:51;8.63;;;2.20;;
4696;SDS011;2362;50.780;0.292;2023-04-03T12:48:26;12.20;;;2.47;;
4696;SDS011;2362;50.780;0.292;2023-04-03T12:50:55;10.43;;;2.65;;
4696;SDS011;2362;50.780;0.292;2023-04-03T12:53:31;17.70;;;2.47;;
4696;SDS011;2362;50.780;0.292;2023-04-03T12:56:18;14.45;;;2.65;;
4696;SDS011;2362;50.780;0.292;2023-04-03T12:58:44;11.02;;;2.33;;
4696;SDS011;2362;50.780;0.292;2023-04-03T13:01:11;7.20;;;1.95;;
4696;SDS011;2362;50.780;0.292;2023-04-03T13:03:43;10.73;;;2.50;;
4696;SDS011;2362;50.780;0.292;2023-04-03T13:06:10;13.07;;;2.30;;
4696;SDS011;2362;50.780;0.292;2023-04-03T13:08:53;18.65;;;2.75;;
4696;SDS011;2362;50.780;0.292;2023-04-03T13:11:22;12.35;;;3.22;;
4696;SDS011;2362;50.780;0.292;2023-04-03T13:13:57;12.02;;;3.67;;
4696;SDS011;2362;50.780;0.292;2023-04-03T13:16:24;11.30;;;2.25;;
4696;SDS011;2362;50.780;0.292;2023-04-03T13:18:51;15.15;;;3.08;;
4696;SDS011;2362;50.780;0.292;2023-04-03T13:21:23;10.98;;;2.47;;
4696;SDS011;2362;50.780;0.292;2023-04-03T13:23:56;13.25;;;2.63;;
4696;SDS011;2362;50.780;0.292;2023-04-03T13:26:26;12.73;;;2.63;;
4696;SDS011;2362;50.780;0.292;2023-04-03T13:28:59;12.57;;;2.22;;
4696;SDS011;2362;50.780;0.292;2023-04-03T13:31:30;10.43;;;2.67;;
4696;SDS011;2362;50.780;0.292;2023-04-03T13:34:17;12.43;;;3.65;;
4696;SDS011;2362;50.780;0.292;2023-04-03T13:41:48;14.60;;;2.58;;
4696;SDS011;2362;50.780;0.292;2023-04-03T13:46:48;10.57;;;2.63;;
4696;SDS011;2362;50.780;0.292;2023-04-03T13:55:16;24.23;;;3.20;;
4696;SDS011;2362;50.780;0.292;2023-04-03T14:00:29;8.40;;;2.42;;
4696;SDS011;2362;50.780;0.292;2023-04-03T14:03:07;8.68;;;2.95;;
4696;SDS011;2362;50.780;0.292;2023-04-03T14:10:41;12.68;;;2.90;;
4696;SDS011;2362;50.780;0.292;2023-04-03T14:13:09;18.13;;;3.70;;
4696;SDS011;2362;50.780;0.292;2023-04-03T14:15:39;12.27;;;3.30;;
4696;SDS011;2362;50.780;0.292;2023-04-03T14:18:04;15.50;;;3.60;;
4696;SDS011;2362;50.780;0.292;2023-04-03T14:20:30;19.55;;;4.13;;
4696;SDS011;2362;50.780;0.292;2023-04-03T14:22:56;16.48;;;3.35;;
4696;SDS011;2362;50.780;0.292;2023-04-03T14:25:22;9.05;;;2.88;;
4696;SDS011;2362;50.780;0.292;2023-04-03T14:27:51;13.20;;;3.92;;
4696;SDS011;2362;50.780;0.292;2023-04-03T14:30:25;13.68;;;3.53;;
4696;SDS011;2362;50.780;0.292;2023-04-03T14:32:53;18.80;;;3.65;;
4696;SDS011;2362;50.780;0.292;2023-04-03T14:35:20;19.15;;;4.00;;
4696;SDS011;2362;50.780;0.292;2023-04-03T14:37:46;22.15;;;4.00;;
4696;SDS011;2362;50.780;0.292;2023-04-03T14:40:13;16.73;;;3.83;;
4696;SDS011;2362;50.780;0.292;2023-04-03T14:42:43;15.77;;;4.55;;
4696;SDS011;2362;50.780;0.292;2023-04-03T14:45:11;21.38;;;3.78;;
4696;SDS011;2362;50.780;0.292;2023-04-03T14:47:39;18.00;;;4.63;;
4696;SDS011;2362;50.780;0.292;2023-04-03T14:50:12;16.30;;;3.80;;
4696;SDS011;2362;50.780;0.292;2023-04-03T14:52:42;19.25;;;5.43;;
4696;SDS011;2362;50.780;0.292;2023-04-03T14:55:08;22.52;;;4.65;;
4696;SDS011;2362;50.780;0.292;2023-04-03T14:57:34;18.38;;;5.05;;
4696;SDS011;2362;50.780;0.292;2023-04-03T15:00:00;21.67;;;4.55;;
4696;SDS011;2362;50.780;0.292;2023-04-03T15:04:53;19.30;;;3.97;;
4696;SDS011;2362;50.780;0.292;2023-04-03T15:07:19;18.00;;;4.85;;
4696;SDS011;2362;50.780;0.292;2023-04-03T15:09:46;18.33;;;4.10;;
4696;SDS011;2362;50.780;0.292;2023-04-03T15:12:11;15.02;;;3.95;;
4696;SDS011;2362;50.780;0.292;2023-04-03T15:14:37;16.48;;;4.60;;
4696;SDS011;2362;50.780;0.292;2023-04-03T15:17:04;7.35;;;4.10;;
4696;SDS011;2362;50.780;0.292;2023-04-03T15:19:36;16.58;;;4.63;;
4696;SDS011;2362;50.780;0.292;2023-04-03T15:22:03;17.77;;;5.18;;
4696;SDS011;2362;50.780;0.292;2023-04-03T15:24:28;18.73;;;4.60;;
4696;SDS011;2362;50.780;0.292;2023-04-03T15:26:54;15.98;;;5.30;;
4696;SDS011;2362;50.780;0.292;2023-04-03T15:29:20;22.02;;;5.38;;
4696;SDS011;2362;50.780;0.292;2023-04-03T15:31:45;19.30;;;4.85;;
4696;SDS011;2362;50.780;0.292;2023-04-03T15:34:11;16.67;;;5.18;;
4696;SDS011;2362;50.780;0.292;2023-04-03T15:36:37;19.30;;;5.20;;
4696;SDS011;2362;50.780;0.292;2023-04-03T15:39:02;18.55;;;3.83;;
4696;SDS011;2362;50.780;0.292;2023-04-03T15:41:28;19.20;;;4.78;;
4696;SDS011;2362;50.780;0.292;2023-04-03T15:43:54;14.55;;;4.10;;
4696;SDS011;2362;50.780;0.292;2023-04-03T15:46:20;17.27;;;4.38;;
4696;SDS011;2362;50.780;0.292;2023-04-03T15:48:45;25.92;;;4.90;;
4696;SDS011;2362;50.780;0.292;2023-04-03T15:51:11;22.27;;;4.47;;
4696;SDS011;2362;50.780;0.292;2023-04-03T15:53:37;22.13;;;4.50;;
4696;SDS011;2362;50.780;0.292;2023-04-03T15:56:03;21.23;;;4.07;;
4696;SDS011;2362;50.780;0.292;2023-04-03T15:58:29;12.85;;;3.55;;
4696;SDS011;2362;50.780;0.292;2023-04-03T16:00:55;21.88;;;4.32;;
4696;SDS011;2362;50.780;0.292;2023-04-03T16:03:21;21.70;;;4.70;;
4696;SDS011;2362;50.780;0.292;2023-04-03T16:05:50;22.48;;;4.35;;
4696;SDS011;2362;50.780;0.292;2023-04-03T16:08:16;12.68;;;4.00;;
4696;SDS011;2362;50.780;0.292;2023-04-03T16:10:43;21.52;;;4.35;;
4696;SDS011;2362;50.780;0.292;2023-04-03T16:13:10;23.25;;;5.47;;
4696;SDS011;2362;50.780;0.292;2023-04-03T16:15:36;19.83;;;4.00;;
4696;SDS011;2362;50.780;0.292;2023-04-03T16:18:02;16.27;;;4.40;;
4696;SDS011;2362;50.780;0.292;2023-04-03T16:20:29;20.15;;;4.40;;
4696;SDS011;2362;50.780;0.292;2023-04-03T16:22:56;20.88;;;5.00;;
4696;SDS011;2362;50.780;0.292;2023-04-03T16:25:48;23.13;;;5.95;;
4696;SDS011;2362;50.780;0.292;2023-04-03T16:28:15;19.30;;;4.65;;
4696;SDS011;2362;50.780;0.292;2023-04-03T16:30:42;9.90;;;3.35;;
4696;SDS011;2362;50.780;0.292;2023-04-03T16:33:09;17.30;;;5.07;;
4696;SDS011;2362;50.780;0.292;2023-04-03T16:35:36;12.90;;;3.50;;
4696;SDS011;2362;50.780;0.292;2023-04-03T16:38:02;27.83;;;4.68;;
4696;SDS011;2362;50.780;0.292;2023-04-03T16:40:28;17.73;;;4.80;;
4696;SDS011;2362;50.780;0.292;2023-04-03T16:42:53;18.10;;;6.30;;
4696;SDS011;2362;50.780;0.292;2023-04-03T16:45:19;20.75;;;3.80;;
4696;SDS011;2362;50.780;0.292;2023-04-03T16:47:45;19.42;;;4.60;;
4696;SDS011;2362;50.780;0.292;2023-04-03T16:50:11;18.10;;;4.22;;
4696;SDS011;2362;50.780;0.292;2023-04-03T16:52:37;25.67;;;4.78;;
4696;SDS011;2362;50.780;0.292;2023-04-03T16:55:02;23.05;;;5.53;;
4696;SDS011;2362;50.780;0.292;2023-04-03T16:57:29;27.77;;;4.75;;
4696;SDS011;2362;50.780;0.292;2023-04-03T16:59:55;31.20;;;4.32;;
4696;SDS011;2362;50.780;0.292;2023-04-03T17:02:21;17.65;;;3.92;;
4696;SDS011;2362;50.780;0.292;2023-04-03T17:04:49;21.85;;;4.15;;
4696;SDS011;2362;50.780;0.292;2023-04-03T17:07:16;23.95;;;3.33;;
4696;SDS011;2362;50.780;0.292;2023-04-03T17:09:43;14.30;;;3.25;;
4696;SDS011;2362;50.780;0.292;2023-04-03T17:12:09;12.63;;;3.42;;
4696;SDS011;2362;50.780;0.292;2023-04-03T17:14:35;21.55;;;3.83;;